RJFF Airport Information

Runway Information
Runway 16 Length 9186 ft width 197 ft
Elevation 15 ft Threshold 0 ft Heading 150
Runway 34 Length 9186 ft Width 197 ft
Elevation 32 ft Threshold 0 ft Heading 330
Airport Frequencies
Type APP Name APP Frequency 119.1 MHZ
Type ATIS Name ATIS Frequency 127.2 MHZ
Type CLD Name CLNC DEL Frequency 121.925 MHZ
Type DEP Name DEP Frequency 119.7 MHZ
Type GND Name GND Frequency 121.7 MHZ
Type TCA Name TCA Frequency 121.275 MHZ
Type TWR Name TWR Frequency 118.4 MHZ
Airport Navaids
Type VORTAC Name Fukuoka Frequency 114500 KHZ
Type NDB Name Fukuoka Frequency 203 KHZ
Airport Weather Information & NOTAM
ADDS - METARS form results

(1858 UTC 16 May 2022)
Data provider http://aviationweather.gov/metar/data/
 
METAR text: RJFF 161830Z AUTO VRB02KT 9999 NCD 14/09 Q1014 NOSIG RMK A2995
Conditions at: RJFF (FUKUOKA/ITAZUKE , JP) observed 1830 UTC 16 May 2022
Temperature: 14.0°C (57°F)
Dewpoint: 9.0°C (48°F) [RH = 72%]
Pressure (altimeter): 29.94 inches Hg (1014.0 mb)
Winds: variable direction winds at 2 MPH (2 knots; 1.0 m/s)
Visibility: 6 or more miles (10+ km)
Ceiling: at least 12,000 feet AGL
Clouds: sky clear below 12,000 feet AGL
Weather: no significant weather observed at this time

METAR text: RJFF 161800Z AUTO 12003KT 9999 NSC 15/10 Q1014 NOSIG RMK A2995
Conditions at: RJFF (FUKUOKA/ITAZUKE , JP) observed 1800 UTC 16 May 2022
Temperature: 15.0°C (59°F)
Dewpoint: 10.0°C (50°F) [RH = 72%]
Pressure (altimeter): 29.94 inches Hg (1014.0 mb)
Winds: from the ESE (120 degrees) at 3 MPH (3 knots; 1.5 m/s)
Visibility: 6 or more miles (10+ km)
Ceiling: at least 12,000 feet AGL
Clouds: sky clear below 12,000 feet AGL
Weather: no significant weather observed at this time

Forecast for: RJFF (FUKUOKA/ITAZUKE , JP)
Text: TAF RJFF 161706Z 1618/1800 15004KT 9999 FEW030
Forecast period: 1800 to 2300 UTC 16 May 2022
Forecast type: FROM: standard forecast or significant change
Winds: from the SSE (150 degrees) at 5 MPH (4 knots; 2.1 m/s)
Visibility: 6 or more miles (10+ km)
Ceiling: at least 12,000 feet AGL
Clouds: few clouds at 3000 feet AGL
Weather: no significant weather forecast for this period
Text: BECMG 1623/1701 31011KT
Forecast period: 2300 UTC 16 May 2022 to 1200 UTC 17 May 2022
Forecast type: BECOMING: Conditions expected to become as follows by 0100 UTC 17 May 2022
Winds: from the NW (310 degrees) at 13 MPH (11 knots; 5.7 m/s)
Visibility: 6 or more miles (10+ km)
Ceiling: at least 12,000 feet AGL
Clouds: few clouds at 3000 feet AGL
Weather: no significant weather forecast for this period
Text: BECMG 1712/1715 15005KT
Forecast period: 1200 UTC 17 May 2022 to 0000 UTC 18 May 2022
Forecast type: BECOMING: Conditions expected to become as follows by 1500 UTC 17 May 2022
Winds: from the SSE (150 degrees) at 6 MPH (5 knots; 2.6 m/s)
Visibility: 6 or more miles (10+ km)
Ceiling: at least 12,000 feet AGL
Clouds: few clouds at 3000 feet AGL
Weather: no significant weather forecast for this period